createdAt,value
2023-01-27T00:00:38.987Z,92656.47
2023-01-27T00:03:05.514Z,92644.56
2023-01-27T00:05:31.950Z,92643.38
2023-01-27T00:07:58.752Z,92638.00
2023-01-27T00:10:26.587Z,92643.97
2023-01-27T00:13:11.852Z,92643.59
2023-01-27T00:15:38.395Z,92634.47
2023-01-27T00:18:04.892Z,92630.72
2023-01-27T00:20:50.093Z,92638.25
2023-01-27T00:23:38.673Z,92643.41
2023-01-27T00:26:08.116Z,92648.38
2023-01-27T00:28:39.030Z,92639.88
2023-01-27T00:31:08.647Z,92642.56
2023-01-27T00:33:35.181Z,92642.13
2023-01-27T00:36:04.870Z,92646.34
2023-01-27T00:38:35.024Z,92637.63
2023-01-27T00:41:19.762Z,92650.88
2023-01-27T00:43:53.625Z,92645.34
2023-01-27T00:46:22.245Z,92640.03
2023-01-27T00:48:49.508Z,92637.16
2023-01-27T00:51:16.740Z,92639.84
2023-01-27T00:53:43.550Z,92643.41
2023-01-27T00:56:10.512Z,92643.47
2023-01-27T00:58:37.364Z,92646.66
2023-01-27T01:01:06.956Z,92636.38
2023-01-27T01:03:35.654Z,92634.97
2023-01-27T01:06:08.311Z,92639.25
2023-01-27T01:08:36.508Z,92644.38
2023-01-27T01:11:04.417Z,92636.06
2023-01-27T01:13:31.361Z,92640.84
2023-01-27T01:15:58.080Z,92644.66
2023-01-27T01:18:25.420Z,92640.91
2023-01-27T01:20:51.876Z,92641.50
2023-01-27T01:23:18.363Z,92643.53
2023-01-27T01:25:53.866Z,92639.53
2023-01-27T01:28:21.252Z,92638.94
2023-01-27T01:30:48.031Z,92646.13
2023-01-27T01:33:15.182Z,92634.84
2023-01-27T01:35:41.858Z,92626.16
2023-01-27T01:38:09.238Z,92634.03
2023-01-27T01:40:42.310Z,92629.94
2023-01-27T01:43:15.890Z,92636.28
2023-01-27T01:45:53.938Z,92618.50
2023-01-27T01:48:34.715Z,92624.63
2023-01-27T01:51:10.658Z,92620.09
2023-01-27T01:53:46.061Z,92619.88
2023-01-27T01:56:19.766Z,92628.19
2023-01-27T01:58:47.763Z,92625.16
2023-01-27T02:01:16.872Z,92623.81
2023-01-27T02:03:47.363Z,92624.19
2023-01-27T02:06:13.844Z,92618.44
2023-01-27T02:08:43.991Z,92609.50
2023-01-27T02:11:10.948Z,92608.75
2023-01-27T02:13:38.607Z,92601.25
2023-01-27T02:16:06.251Z,92605.56
2023-01-27T02:18:32.894Z,92614.50
2023-01-27T02:20:59.599Z,92599.69
2023-01-27T02:23:38.148Z,92597.50
2023-01-27T02:26:17.658Z,92604.00
2023-01-27T02:28:44.668Z,92601.59
2023-01-27T02:31:11.283Z,92605.75
2023-01-27T02:34:27.589Z,92604.59
2023-01-27T02:36:58.661Z,92602.41
2023-01-27T02:39:30.683Z,92601.84
2023-01-27T02:41:58.502Z,92600.66
2023-01-27T02:44:25.816Z,92601.41
2023-01-27T02:46:52.249Z,92600.38
2023-01-27T02:49:18.803Z,92599.22
2023-01-27T02:51:45.216Z,92603.91
2023-01-27T02:54:11.806Z,92607.41
2023-01-27T02:56:38.360Z,92606.63
2023-01-27T02:59:06.322Z,92606.06
2023-01-27T03:01:36.986Z,92603.50
2023-01-27T03:04:03.661Z,92608.28
2023-01-27T03:06:30.095Z,92590.53
2023-01-27T03:08:56.691Z,92591.88
2023-01-27T03:11:41.835Z,92595.47
2023-01-27T03:14:09.138Z,92600.59
2023-01-27T03:16:54.212Z,92597.88
2023-01-27T03:19:20.648Z,92598.84
2023-01-27T03:21:50.975Z,92596.66
2023-01-27T03:24:17.991Z,92598.94
2023-01-27T03:26:44.583Z,92596.75
2023-01-27T03:29:32.648Z,92594.56
2023-01-27T03:32:00.868Z,92603.84
2023-01-27T03:34:28.246Z,92613.44
2023-01-27T03:37:21.479Z,92613.16
2023-01-27T03:40:06.695Z,92614.94
2023-01-27T03:42:51.601Z,92614.56
2023-01-27T03:45:36.853Z,92616.00
2023-01-27T03:48:03.361Z,92608.63
2023-01-27T03:50:42.065Z,92617.94
2023-01-27T03:53:09.923Z,92607.84
2023-01-27T03:55:37.729Z,92613.00
2023-01-27T03:58:20.408Z,92613.00
2023-01-27T04:00:52.887Z,92618.50
2023-01-27T04:03:38.941Z,92619.09
2023-01-27T04:06:26.335Z,92621.84
2023-01-27T04:08:52.918Z,92629.41
2023-01-27T04:11:38.099Z,92624.88
2023-01-27T04:14:06.119Z,92620.94
2023-01-27T04:16:34.373Z,92608.28
2023-01-27T04:19:00.777Z,92612.63
2023-01-27T04:21:27.234Z,92608.69
2023-01-27T04:23:53.833Z,92602.72
2023-01-27T04:26:20.917Z,92601.53
2023-01-27T04:28:47.871Z,92591.69
2023-01-27T04:31:15.577Z,92601.59
2023-01-27T04:33:43.053Z,92600.00
2023-01-27T04:36:09.622Z,92609.50
2023-01-27T04:38:36.127Z,92598.03
2023-01-27T04:41:02.564Z,92601.19
2023-01-27T04:43:28.972Z,92595.66
2023-01-27T04:45:55.519Z,92593.63
2023-01-27T04:48:22.019Z,92602.34
2023-01-27T04:50:48.425Z,92604.06
2023-01-27T04:53:14.813Z,92612.91
2023-01-27T04:55:47.820Z,92633.31
2023-01-27T04:58:15.257Z,92631.38
2023-01-27T05:00:41.675Z,92633.03
2023-01-27T05:03:10.114Z,92632.50
2023-01-27T05:05:37.519Z,92642.78
2023-01-27T05:08:08.162Z,92648.31
2023-01-27T05:10:34.595Z,92639.91
2023-01-27T05:13:02.073Z,92643.81
2023-01-27T05:15:30.030Z,92645.66
2023-01-27T05:17:56.531Z,92639.97
2023-01-27T05:20:23.148Z,92631.28
2023-01-27T05:22:51.542Z,92630.31
2023-01-27T05:25:18.004Z,92638.63
2023-01-27T05:27:44.721Z,92633.13
2023-01-27T05:30:11.712Z,92643.41
2023-01-27T05:32:38.183Z,92643.03
2023-01-27T05:35:05.039Z,92637.53
2023-01-27T05:37:31.430Z,92636.28
2023-01-27T05:39:59.339Z,92636.22
2023-01-27T05:42:25.731Z,92637.03
2023-01-27T05:44:52.190Z,92633.66
2023-01-27T05:47:18.600Z,92639.84
2023-01-27T05:49:45.172Z,92644.38
2023-01-27T05:52:11.593Z,92647.25
2023-01-27T05:54:38.053Z,92643.44
2023-01-27T05:57:04.478Z,92645.66
2023-01-27T05:59:30.889Z,92644.44
2023-01-27T06:01:57.347Z,92643.22
2023-01-27T06:04:23.870Z,92635.84
2023-01-27T06:06:50.273Z,92628.56
2023-01-27T06:09:16.659Z,92635.75
2023-01-27T06:11:43.088Z,92640.88
2023-01-27T06:14:09.479Z,92653.03
2023-01-27T06:16:35.943Z,92644.59
2023-01-27T06:19:02.396Z,92649.31
2023-01-27T06:21:28.812Z,92648.53
2023-01-27T06:23:55.852Z,92649.50
2023-01-27T06:26:22.436Z,92648.16
2023-01-27T06:28:49.107Z,92650.34
2023-01-27T06:31:19.048Z,92664.56
2023-01-27T06:33:45.538Z,92662.97
2023-01-27T06:36:15.092Z,92660.50
2023-01-27T06:38:42.053Z,92662.00
2023-01-27T06:41:08.728Z,92666.72
2023-01-27T06:43:35.245Z,92663.00
2023-01-27T06:46:05.172Z,92671.59
2023-01-27T06:48:32.390Z,92673.19
2023-01-27T06:50:58.853Z,92670.25
2023-01-27T06:53:25.874Z,92677.34
2023-01-27T06:56:00.629Z,92672.66
2023-01-27T06:58:28.341Z,92681.63
2023-01-27T07:00:55.482Z,92692.50
2023-01-27T07:03:22.624Z,92689.56
2023-01-27T07:05:49.067Z,92703.56
2023-01-27T07:08:15.865Z,92705.00
2023-01-27T07:10:42.340Z,92717.66
2023-01-27T07:13:11.596Z,92700.72
2023-01-27T07:15:38.577Z,92707.44
2023-01-27T07:18:05.123Z,92714.63
2023-01-27T07:20:31.910Z,92715.88
2023-01-27T07:22:59.968Z,92710.03
2023-01-27T07:25:27.616Z,92713.84
2023-01-27T07:27:54.102Z,92712.75
2023-01-27T07:30:20.521Z,92714.88
2023-01-27T07:32:46.972Z,92711.53
2023-01-27T07:35:13.386Z,92707.19
2023-01-27T07:37:39.799Z,92709.56
2023-01-27T07:40:06.832Z,92711.53
2023-01-27T07:42:33.265Z,92711.09
2023-01-27T07:44:59.681Z,92713.91
2023-01-27T07:47:26.128Z,92712.41
2023-01-27T07:49:52.601Z,92715.22
2023-01-27T07:52:18.997Z,92729.34
2023-01-27T07:54:45.455Z,92725.16
2023-01-27T07:57:11.879Z,92719.66
2023-01-27T07:59:38.295Z,92723.91
2023-01-27T08:02:04.775Z,92730.09
2023-01-27T08:04:35.205Z,92738.28
2023-01-27T08:07:06.530Z,92738.88
2023-01-27T08:09:32.948Z,92746.22
2023-01-27T08:11:59.352Z,92757.53
2023-01-27T08:14:25.746Z,92760.34
2023-01-27T08:16:52.232Z,92752.53
2023-01-27T08:19:18.881Z,92757.16
2023-01-27T08:21:45.288Z,92759.19
2023-01-27T08:24:12.776Z,92758.16
2023-01-27T08:26:39.244Z,92759.91
2023-01-27T08:29:05.804Z,92764.69
2023-01-27T08:31:32.335Z,92770.03
2023-01-27T08:33:58.817Z,92760.97
2023-01-27T08:36:25.540Z,92757.78
2023-01-27T08:38:52.040Z,92765.25
2023-01-27T08:41:21.846Z,92760.09
2023-01-27T08:43:48.808Z,92763.28
2023-01-27T08:46:16.037Z,92768.16
2023-01-27T08:48:43.205Z,92772.75
2023-01-27T08:51:12.906Z,92768.22
2023-01-27T08:53:40.002Z,92767.59
2023-01-27T08:56:10.687Z,92779.31
2023-01-27T08:58:37.735Z,92782.69
2023-01-27T09:01:06.160Z,92775.31
2023-01-27T09:03:32.947Z,92782.50
2023-01-27T09:05:59.718Z,92788.53
2023-01-27T09:08:27.012Z,92780.91
2023-01-27T09:10:53.487Z,92783.38
2023-01-27T09:13:22.282Z,92784.19
2023-01-27T09:15:54.249Z,92784.53
2023-01-27T09:18:21.332Z,92781.50
2023-01-27T09:20:47.794Z,92784.44
2023-01-27T09:23:14.236Z,92775.13
2023-01-27T09:25:40.645Z,92780.63
2023-01-27T09:28:11.957Z,92788.59
2023-01-27T09:30:40.777Z,92781.25
2023-01-27T09:33:08.923Z,92773.34
2023-01-27T09:35:41.869Z,92790.97
2023-01-27T09:38:09.562Z,92781.41
2023-01-27T09:41:04.983Z,92784.44
2023-01-27T09:43:55.812Z,92792.03
2023-01-27T09:47:02.161Z,92789.69
2023-01-27T09:49:28.514Z,92793.41
2023-01-27T09:52:26.242Z,92784.78
2023-01-27T09:55:18.093Z,92794.63
2023-01-27T09:58:25.713Z,92794.47
2023-01-27T10:01:07.764Z,92795.34
2023-01-27T10:03:58.200Z,92792.22
2023-01-27T10:07:03.108Z,92797.81
2023-01-27T10:09:49.651Z,92797.47
2023-01-27T10:12:43.415Z,92782.91
2023-01-27T10:15:23.361Z,92792.47
2023-01-27T10:18:27.435Z,92786.34
2023-01-27T10:21:14.498Z,92778.38
2023-01-27T10:24:13.433Z,92788.16
2023-01-27T10:26:46.867Z,92783.25
2023-01-27T10:29:44.633Z,92779.25
2023-01-27T10:32:40.391Z,92777.81
2023-01-27T10:35:12.942Z,92769.97
2023-01-27T10:37:58.399Z,92773.75
2023-01-27T10:40:47.521Z,92769.06
2023-01-27T10:44:17.893Z,92770.97
2023-01-27T10:47:11.981Z,92763.31
2023-01-27T10:50:06.202Z,92769.75
2023-01-27T10:52:44.281Z,92775.47
2023-01-27T10:55:22.467Z,92780.13
2023-01-27T10:58:15.199Z,92787.25
2023-01-27T11:03:51.562Z,92820.19
2023-01-27T11:06:30.867Z,92823.03
2023-01-27T11:09:25.744Z,92815.91
2023-01-27T11:11:56.040Z,92808.09
2023-01-27T11:14:46.890Z,92826.34
2023-01-27T11:17:42.727Z,92819.31
2023-01-27T11:20:26.493Z,92812.38
2023-01-27T11:23:14.615Z,92816.53
2023-01-27T11:26:06.667Z,92815.81
2023-01-27T11:28:47.146Z,92814.22
2023-01-27T11:31:39.693Z,92816.84
2023-01-27T11:34:37.244Z,92811.06
2023-01-27T11:37:29.452Z,92799.63
2023-01-27T11:39:56.107Z,92803.28
2023-01-27T11:42:36.976Z,92805.97
2023-01-27T11:45:04.727Z,92794.22
2023-01-27T11:47:37.523Z,92784.66
2023-01-27T11:50:05.792Z,92774.63
2023-01-27T11:52:32.771Z,92767.31
2023-01-27T11:55:20.385Z,92769.97
2023-01-27T11:58:02.589Z,92767.03
2023-01-27T12:00:59.618Z,92769.34
2023-01-27T12:03:41.551Z,92770.50
2023-01-27T12:06:42.890Z,92764.19
2023-01-27T12:09:35.010Z,92768.13
2023-01-27T12:12:31.044Z,92766.38
2023-01-27T12:15:05.477Z,92755.50
2023-01-27T12:17:41.939Z,92765.94
2023-01-27T12:20:34.480Z,92768.88
2023-01-27T12:23:24.571Z,92777.22
2023-01-27T12:26:01.138Z,92771.81
2023-01-27T12:28:39.044Z,92769.97
2023-01-27T12:31:16.058Z,92761.28
2023-01-27T12:33:46.848Z,92757.72
2023-01-27T12:36:24.860Z,92741.91
2023-01-27T12:38:53.840Z,92747.78
2023-01-27T12:41:34.310Z,92750.19
2023-01-27T12:44:18.469Z,92744.41
2023-01-27T12:47:16.150Z,92746.91
2023-01-27T12:49:44.706Z,92734.25
2023-01-27T12:52:19.978Z,92733.47
2023-01-27T12:54:46.885Z,92740.53
2023-01-27T12:57:20.830Z,92740.44
2023-01-27T12:59:58.607Z,92763.47
2023-01-27T13:02:30.670Z,92756.72
2023-01-27T13:05:01.115Z,92743.59
2023-01-27T13:07:30.841Z,92763.16
2023-01-27T13:10:16.917Z,92763.38
2023-01-27T13:12:58.917Z,92753.91
2023-01-27T13:15:28.600Z,92763.59
2023-01-27T13:17:57.231Z,92752.94
2023-01-27T13:21:03.575Z,92754.72
2023-01-27T13:23:36.563Z,92765.00
2023-01-27T13:26:09.342Z,92766.97
2023-01-27T13:28:52.314Z,92767.25
2023-01-27T13:31:42.991Z,92762.44
2023-01-27T13:34:25.898Z,92759.69
2023-01-27T13:37:18.229Z,92755.75
2023-01-27T13:39:54.960Z,92752.16
2023-01-27T13:42:29.150Z,92750.19
2023-01-27T13:45:01.386Z,92747.03
2023-01-27T13:47:47.809Z,92749.88
2023-01-27T13:50:32.498Z,92749.22
2023-01-27T13:53:00.647Z,92751.84
2023-01-27T13:55:46.824Z,92757.00
2023-01-27T13:58:31.906Z,92764.66
2023-01-27T14:01:10.512Z,92772.06
2023-01-27T14:04:16.388Z,92774.38
2023-01-27T14:07:14.736Z,92778.69
2023-01-27T14:10:01.491Z,92788.72
2023-01-27T14:12:54.832Z,92785.22
2023-01-27T14:15:40.367Z,92794.19
2023-01-27T14:18:29.417Z,92795.56
2023-01-27T14:21:08.324Z,92792.38
2023-01-27T14:23:51.016Z,92799.25
2023-01-27T14:26:47.167Z,92798.56
2023-01-27T14:29:46.279Z,92794.88
2023-01-27T14:32:35.554Z,92802.28
2023-01-27T14:35:16.345Z,92800.09
2023-01-27T14:37:52.597Z,92797.13
2023-01-27T14:40:25.136Z,92800.28
2023-01-27T14:42:51.467Z,92795.66
2023-01-27T14:45:26.118Z,92802.03
2023-01-27T14:48:07.181Z,92800.63
2023-01-27T14:50:43.491Z,92806.03
2023-01-27T14:53:39.130Z,92804.97
2023-01-27T14:56:23.887Z,92808.59
2023-01-27T14:59:12.128Z,92819.91
2023-01-27T15:01:43.609Z,92817.66
2023-01-27T15:04:25.469Z,92818.56
2023-01-27T15:06:59.256Z,92821.66
2023-01-27T15:09:59.772Z,92820.31
2023-01-27T15:12:51.191Z,92822.44
2023-01-27T15:15:38.106Z,92821.75
2023-01-27T15:18:15.471Z,92826.53
2023-01-27T15:20:53.054Z,92824.56
2023-01-27T15:23:37.182Z,92833.28
2023-01-27T15:26:07.771Z,92831.22
2023-01-27T15:28:38.353Z,92823.72
2023-01-27T15:31:21.470Z,92826.81
2023-01-27T15:33:55.019Z,92822.13
2023-01-27T15:36:27.246Z,92825.09
2023-01-27T15:39:08.917Z,92817.38
2023-01-27T15:41:36.192Z,92820.16
2023-01-27T15:44:33.551Z,92816.84
2023-01-27T15:47:14.308Z,92812.69
2023-01-27T15:49:46.640Z,92826.16
2023-01-27T15:52:30.645Z,92826.28
2023-01-27T15:55:02.370Z,92831.97
2023-01-27T15:57:43.038Z,92834.44
2023-01-27T16:00:30.211Z,92840.63
2023-01-27T16:03:02.462Z,92840.91
2023-01-27T16:05:36.682Z,92848.88
2023-01-27T16:08:12.667Z,92842.16
2023-01-27T16:10:40.058Z,92844.56
2023-01-27T16:13:35.063Z,92848.72
2023-01-27T16:16:19.579Z,92851.09
2023-01-27T16:18:54.730Z,92852.53
2023-01-27T16:21:50.446Z,92861.28
2023-01-27T16:24:40.050Z,92860.16
2023-01-27T16:27:44.134Z,92864.94
2023-01-27T16:30:26.862Z,92868.94
2023-01-27T16:33:21.262Z,92875.75
2023-01-27T16:35:59.587Z,92874.59
2023-01-27T16:38:32.818Z,92875.06
2023-01-27T16:41:20.053Z,92879.38
2023-01-27T16:43:52.878Z,92870.69
2023-01-27T16:46:27.750Z,92884.16
2023-01-27T16:48:54.265Z,92885.00
2023-01-27T16:51:25.897Z,92885.78
2023-01-27T16:53:54.736Z,92883.75
2023-01-27T16:56:49.625Z,92892.78
2023-01-27T16:59:22.769Z,92887.81
2023-01-27T17:01:52.590Z,92892.00
2023-01-27T17:04:31.736Z,92895.69
2023-01-27T17:07:12.065Z,92899.25
2023-01-27T17:09:52.433Z,92902.91
2023-01-27T17:12:32.714Z,92903.06
2023-01-27T17:15:00.662Z,92891.63
2023-01-27T17:17:31.861Z,92898.81
2023-01-27T17:20:02.423Z,92898.38
2023-01-27T17:22:36.091Z,92893.22
2023-01-27T17:25:07.608Z,92890.03
2023-01-27T17:27:38.031Z,92891.28
2023-01-27T17:30:16.799Z,92903.34
2023-01-27T17:32:47.935Z,92898.72
2023-01-27T17:35:26.590Z,92910.59
2023-01-27T17:38:05.121Z,92900.16
2023-01-27T17:40:38.436Z,92901.56
2023-01-27T17:43:23.418Z,92903.97
2023-01-27T17:46:14.241Z,92911.50
2023-01-27T17:48:55.875Z,92901.56
2023-01-27T17:51:35.752Z,92909.09
2023-01-27T17:54:15.964Z,92916.53
2023-01-27T17:56:42.433Z,92910.78
2023-01-27T17:59:17.533Z,92922.28
2023-01-27T18:01:44.613Z,92917.16
2023-01-27T18:04:11.181Z,92927.94
2023-01-27T18:06:41.775Z,92921.75
2023-01-27T18:09:26.060Z,92921.06
2023-01-27T18:12:04.396Z,92925.06
2023-01-27T18:14:34.976Z,92924.53
2023-01-27T18:17:25.863Z,92925.47
2023-01-27T18:19:54.584Z,92930.63
2023-01-27T18:22:22.321Z,92937.81
2023-01-27T18:24:52.273Z,92937.19
2023-01-27T18:27:52.733Z,92942.06
2023-01-27T18:30:21.405Z,92940.59
2023-01-27T18:32:53.144Z,92947.03
2023-01-27T18:35:29.223Z,92944.75
2023-01-27T18:37:59.492Z,92951.75
2023-01-27T18:40:29.439Z,92953.34
2023-01-27T18:42:57.272Z,92947.22
2023-01-27T18:45:24.673Z,92951.41
2023-01-27T18:47:51.147Z,92953.63
2023-01-27T18:50:22.628Z,92954.22
2023-01-27T18:52:50.365Z,92952.81
2023-01-27T18:55:18.429Z,92950.16
2023-01-27T18:57:46.919Z,92952.09
2023-01-27T19:00:19.183Z,92949.59
2023-01-27T19:02:47.630Z,92953.44
2023-01-27T19:05:16.681Z,92950.72
2023-01-27T19:07:43.160Z,92955.81
2023-01-27T19:10:16.096Z,92950.72
2023-01-27T19:12:42.595Z,92956.56
2023-01-27T19:15:12.758Z,92950.19
2023-01-27T19:17:39.365Z,92960.25
2023-01-27T19:20:14.557Z,92964.06
2023-01-27T19:22:41.237Z,92961.22
2023-01-27T19:25:08.022Z,92966.56
2023-01-27T19:27:34.449Z,92952.41
2023-01-27T19:30:15.460Z,92958.44
2023-01-27T19:32:41.866Z,92951.78
2023-01-27T19:35:08.809Z,92952.63
2023-01-27T19:37:35.687Z,92956.59
2023-01-27T19:40:03.091Z,92943.56
2023-01-27T19:42:29.513Z,92957.03
2023-01-27T19:44:57.365Z,92949.41
2023-01-27T19:47:23.781Z,92956.16
2023-01-27T19:49:50.192Z,92958.09
2023-01-27T19:52:16.590Z,92959.81
2023-01-27T19:54:42.999Z,92960.59
2023-01-27T19:57:15.703Z,92961.31
2023-01-27T19:59:42.124Z,92960.19
2023-01-27T20:02:12.242Z,92969.38
2023-01-27T20:04:39.053Z,92972.06
2023-01-27T20:07:05.504Z,92976.56
2023-01-27T20:09:31.967Z,92977.97
2023-01-27T20:11:59.797Z,92981.28
2023-01-27T20:14:27.040Z,92976.41
2023-01-27T20:16:53.788Z,92975.75
2023-01-27T20:19:20.324Z,92973.28
2023-01-27T20:21:47.250Z,92985.78
2023-01-27T20:24:19.145Z,92976.91
2023-01-27T20:26:46.688Z,92983.22
2023-01-27T20:29:14.123Z,92984.81
2023-01-27T20:31:41.063Z,92982.25
2023-01-27T20:34:07.931Z,92990.13
2023-01-27T20:36:34.580Z,92991.28
2023-01-27T20:39:01.110Z,92990.75
2023-01-27T20:41:27.833Z,92996.53
2023-01-27T20:43:56.433Z,92987.66
2023-01-27T20:46:23.078Z,92990.22
2023-01-27T20:48:49.690Z,92995.88
2023-01-27T20:51:16.747Z,92987.78
2023-01-27T20:53:45.638Z,92993.38
2023-01-27T20:56:20.865Z,92996.69
2023-01-27T20:58:48.022Z,92993.03
2023-01-27T21:01:17.434Z,92995.44
2023-01-27T21:03:44.298Z,92997.22
2023-01-27T21:06:12.906Z,92998.28
2023-01-27T21:08:40.095Z,92992.63
2023-01-27T21:11:10.791Z,92987.13
2023-01-27T21:13:37.580Z,92994.59
2023-01-27T21:16:04.222Z,92990.50
2023-01-27T21:18:30.758Z,92989.34
2023-01-27T21:21:01.807Z,92991.56
2023-01-27T21:23:28.570Z,92997.06
2023-01-27T21:25:55.485Z,92995.75
2023-01-27T21:28:22.784Z,92988.03
2023-01-27T21:30:49.384Z,92985.75
2023-01-27T21:33:17.060Z,92987.34
2023-01-27T21:35:43.574Z,92996.03
2023-01-27T21:38:10.137Z,93000.09
2023-01-27T21:40:36.777Z,92989.34
2023-01-27T21:43:21.610Z,92989.00
2023-01-27T21:45:58.352Z,92995.81
2023-01-27T21:48:24.833Z,92987.75
2023-01-27T21:50:51.520Z,92988.13
2023-01-27T21:53:18.006Z,92984.28
2023-01-27T21:55:44.456Z,92985.44
2023-01-27T21:58:13.206Z,92985.31
2023-01-27T22:00:39.634Z,92990.56
2023-01-27T22:03:06.050Z,92981.88
2023-01-27T22:05:33.848Z,92982.75
2023-01-27T22:08:01.914Z,92979.84
2023-01-27T22:10:30.143Z,92981.44
2023-01-27T22:13:03.487Z,92984.97
2023-01-27T22:15:34.179Z,92984.47
2023-01-27T22:18:00.811Z,92982.25
2023-01-27T22:20:33.479Z,92994.75
2023-01-27T22:23:00.299Z,92993.25
2023-01-27T22:25:27.380Z,92991.56
2023-01-27T22:27:55.549Z,92992.91
2023-01-27T22:30:22.179Z,92984.47
2023-01-27T22:32:49.599Z,92991.19
2023-01-27T22:35:18.235Z,92982.75
2023-01-27T22:37:45.707Z,92987.00
2023-01-27T22:40:13.532Z,92981.63
2023-01-27T22:42:40.109Z,92983.47
2023-01-27T22:45:10.509Z,92983.84
2023-01-27T22:47:37.148Z,92985.31
2023-01-27T22:50:04.314Z,92983.38
2023-01-27T22:52:32.431Z,92983.84
2023-01-27T22:54:59.063Z,92984.34
2023-01-27T22:57:30.093Z,92975.66
2023-01-27T22:59:57.877Z,92970.16
2023-01-27T23:02:29.793Z,92963.78
2023-01-27T23:04:57.344Z,92970.16
2023-01-27T23:07:24.403Z,92967.53
2023-01-27T23:09:51.216Z,92968.25
2023-01-27T23:12:20.522Z,92960.44
2023-01-27T23:14:47.069Z,92968.97
2023-01-27T23:17:16.901Z,92971.19
2023-01-27T23:19:43.335Z,92969.84
2023-01-27T23:22:10.340Z,92972.69
2023-01-27T23:24:36.805Z,92971.34
2023-01-27T23:27:03.468Z,92965.84
2023-01-27T23:29:29.937Z,92977.06
2023-01-27T23:31:56.579Z,92974.47
2023-01-27T23:34:23.307Z,92971.63
2023-01-27T23:36:50.895Z,92975.00
2023-01-27T23:39:17.652Z,92978.97
2023-01-27T23:41:46.706Z,92976.59
2023-01-27T23:44:13.862Z,92981.72
2023-01-27T23:46:40.644Z,92979.03
2023-01-27T23:49:07.874Z,92983.31
2023-01-27T23:51:34.315Z,92980.91
2023-01-27T23:54:01.016Z,92977.94
2023-01-27T23:56:27.576Z,92981.56
2023-01-27T23:58:55.533Z,92973.22
